createdAt,value
2017-03-29T00:00:13.279Z,0
2017-03-29T00:01:24.271Z,0
2017-03-29T00:02:35.263Z,0
2017-03-29T00:03:46.447Z,0
2017-03-29T00:04:57.438Z,0
2017-03-29T00:06:08.428Z,0
2017-03-29T00:07:19.471Z,0
2017-03-29T00:08:30.463Z,0
2017-03-29T00:09:41.448Z,0
2017-03-29T00:10:52.437Z,0
2017-03-29T00:12:03.623Z,0
2017-03-29T00:13:14.615Z,0
2017-03-29T00:14:25.808Z,0
2017-03-29T00:15:36.812Z,0
2017-03-29T00:16:47.800Z,0
2017-03-29T00:17:59.041Z,0
2017-03-29T00:19:10.037Z,0
2017-03-29T00:20:21.028Z,0
2017-03-29T00:21:32.014Z,0
2017-03-29T00:22:43.011Z,0
2017-03-29T00:23:53.993Z,0
2017-03-29T00:25:05.190Z,0
2017-03-29T00:26:16.176Z,0
2017-03-29T00:27:27.169Z,0
2017-03-29T00:28:38.204Z,0
2017-03-29T00:29:49.195Z,0
2017-03-29T00:31:00.189Z,0
2017-03-29T00:32:11.407Z,0
2017-03-29T00:33:22.398Z,0
2017-03-29T00:34:33.592Z,0
2017-03-29T00:35:44.572Z,0
2017-03-29T00:36:55.766Z,0
2017-03-29T00:38:07.165Z,0
2017-03-29T00:39:18.158Z,0
2017-03-29T00:40:29.148Z,0
2017-03-29T00:41:40.546Z,0
2017-03-29T00:42:51.541Z,0
2017-03-29T00:44:02.527Z,0
2017-03-29T00:45:13.519Z,0
2017-03-29T00:46:24.709Z,0
2017-03-29T00:47:35.699Z,0
2017-03-29T00:48:46.686Z,0
2017-03-29T00:49:57.920Z,0
2017-03-29T00:51:09.108Z,0
2017-03-29T00:52:20.097Z,0
2017-03-29T00:53:31.079Z,0
2017-03-29T00:54:42.061Z,0
2017-03-29T00:55:53.052Z,0
2017-03-29T00:57:04.040Z,0
2017-03-29T00:58:15.024Z,0
2017-03-29T00:59:26.036Z,0
2017-03-29T01:00:37.078Z,0
2017-03-29T01:01:48.273Z,0
2017-03-29T01:02:59.277Z,0
2017-03-29T01:04:10.480Z,0
2017-03-29T01:05:21.462Z,0
2017-03-29T01:06:32.448Z,0
2017-03-29T01:07:43.631Z,0
2017-03-29T01:08:54.612Z,0
2017-03-29T01:10:05.595Z,0
2017-03-29T01:11:16.832Z,0
2017-03-29T01:12:27.824Z,0
2017-03-29T01:13:38.812Z,0
2017-03-29T01:14:49.805Z,0
2017-03-29T01:16:00.807Z,0
2017-03-29T01:17:12.007Z,0
2017-03-29T01:18:23.057Z,0
2017-03-29T01:19:34.055Z,0
2017-03-29T01:20:45.247Z,0
2017-03-29T01:21:56.231Z,0
2017-03-29T01:23:07.214Z,0
2017-03-29T01:24:18.404Z,0
2017-03-29T01:25:29.396Z,0
2017-03-29T01:26:40.630Z,0
2017-03-29T01:27:51.624Z,0
2017-03-29T01:29:02.618Z,0
2017-03-29T01:30:13.632Z,0
2017-03-29T01:31:24.623Z,0
2017-03-29T01:32:35.816Z,0
2017-03-29T01:33:46.797Z,0
2017-03-29T01:34:57.986Z,0
2017-03-29T01:36:08.976Z,0
2017-03-29T01:37:20.019Z,0
2017-03-29T01:38:31.009Z,0
2017-03-29T01:39:42.000Z,0
2017-03-29T01:40:52.985Z,0
2017-03-29T01:42:04.172Z,0
2017-03-29T01:43:15.157Z,0
2017-03-29T01:44:26.138Z,0
2017-03-29T01:45:37.323Z,0
2017-03-29T01:46:48.311Z,0
2017-03-29T01:47:59.550Z,0
2017-03-29T01:49:10.541Z,0
2017-03-29T01:50:21.538Z,0
2017-03-29T01:51:32.542Z,0
2017-03-29T01:52:43.742Z,0
2017-03-29T01:53:54.726Z,0
2017-03-29T01:55:05.719Z,0
2017-03-29T01:56:16.714Z,0
2017-03-29T01:57:27.703Z,0
2017-03-29T01:58:38.687Z,0
2017-03-29T01:59:49.674Z,0
2017-03-29T02:01:00.659Z,0
2017-03-29T02:02:11.649Z,0
2017-03-29T02:03:22.641Z,0
2017-03-29T02:04:33.836Z,0
2017-03-29T02:05:44.834Z,0
2017-03-29T02:06:55.833Z,0
2017-03-29T02:08:06.826Z,0
2017-03-29T02:09:18.066Z,0
2017-03-29T02:10:29.054Z,0
2017-03-29T02:11:40.041Z,0
2017-03-29T02:12:51.034Z,0
2017-03-29T02:14:02.218Z,0
2017-03-29T02:15:13.207Z,0
2017-03-29T02:16:24.197Z,0
2017-03-29T02:17:35.192Z,0
2017-03-29T02:18:46.181Z,0
2017-03-29T02:19:57.423Z,0
2017-03-29T02:21:08.410Z,0
2017-03-29T02:22:19.407Z,0
2017-03-29T02:23:30.405Z,0
2017-03-29T02:24:41.400Z,0
2017-03-29T02:25:52.428Z,0
2017-03-29T02:27:03.411Z,0
2017-03-29T02:28:14.401Z,0
2017-03-29T02:29:25.592Z,0
2017-03-29T02:30:36.576Z,0
2017-03-29T02:31:47.560Z,0
2017-03-29T02:32:58.553Z,0
2017-03-29T02:34:09.553Z,0
2017-03-29T02:35:20.584Z,0
2017-03-29T02:36:31.569Z,0
2017-03-29T02:37:42.554Z,0
2017-03-29T02:38:53.743Z,0
2017-03-29T02:40:04.735Z,0
2017-03-29T02:41:15.725Z,0
2017-03-29T02:42:26.710Z,0
2017-03-29T02:43:37.916Z,0
2017-03-29T02:44:48.902Z,0
2017-03-29T02:45:59.936Z,0
2017-03-29T02:47:11.151Z,0
2017-03-29T02:48:22.144Z,0
2017-03-29T02:49:33.130Z,0
2017-03-29T02:50:44.309Z,0
2017-03-29T02:51:55.531Z,0
2017-03-29T02:53:06.521Z,0
2017-03-29T02:54:17.714Z,0
2017-03-29T02:55:28.697Z,0
2017-03-29T02:56:39.758Z,0
2017-03-29T02:57:50.747Z,0
2017-03-29T02:59:01.740Z,0
2017-03-29T03:00:12.729Z,0
2017-03-29T03:01:23.717Z,0
2017-03-29T03:02:34.911Z,0
2017-03-29T03:03:46.104Z,0
2017-03-29T03:04:57.293Z,0
2017-03-29T03:06:08.287Z,0
2017-03-29T03:07:19.729Z,0
2017-03-29T03:08:30.710Z,0
2017-03-29T03:09:41.905Z,0
2017-03-29T03:10:53.088Z,0
2017-03-29T03:12:04.479Z,0
2017-03-29T03:13:15.673Z,0
2017-03-29T03:14:26.657Z,0
2017-03-29T03:15:37.643Z,0
2017-03-29T03:16:48.651Z,0
2017-03-29T03:17:59.633Z,0
2017-03-29T03:19:10.627Z,0
2017-03-29T03:20:21.811Z,0
2017-03-29T03:21:32.800Z,0
2017-03-29T03:22:43.830Z,0
2017-03-29T03:23:55.018Z,0
2017-03-29T03:25:06.001Z,0
2017-03-29T03:26:17.189Z,0
2017-03-29T03:27:28.176Z,0
2017-03-29T03:28:39.165Z,0
2017-03-29T03:29:50.150Z,0
2017-03-29T03:31:01.139Z,0
2017-03-29T03:32:12.124Z,0
2017-03-29T03:33:23.160Z,0
2017-03-29T03:34:34.149Z,0
2017-03-29T03:35:45.342Z,0
2017-03-29T03:36:56.336Z,0
2017-03-29T03:38:07.324Z,0
2017-03-29T03:39:18.315Z,0
2017-03-29T03:40:29.302Z,0
2017-03-29T03:41:40.289Z,0
2017-03-29T03:42:51.478Z,0
2017-03-29T03:44:02.718Z,0
2017-03-29T03:45:13.748Z,0
2017-03-29T03:46:24.744Z,0
2017-03-29T03:47:35.740Z,0
2017-03-29T03:48:46.941Z,0
2017-03-29T03:49:57.929Z,0
2017-03-29T03:51:08.922Z,0
2017-03-29T03:52:19.916Z,0
2017-03-29T03:53:30.906Z,0
2017-03-29T03:54:42.096Z,0
2017-03-29T03:55:53.286Z,0
2017-03-29T03:57:04.478Z,0
2017-03-29T03:58:15.667Z,0
2017-03-29T03:59:27.104Z,0
2017-03-29T04:00:38.299Z,0
2017-03-29T04:01:49.691Z,0
2017-03-29T04:03:00.907Z,0
2017-03-29T04:04:11.889Z,0
2017-03-29T04:05:22.872Z,0
2017-03-29T04:06:33.860Z,0
2017-03-29T04:07:45.051Z,0
2017-03-29T04:08:56.071Z,0
2017-03-29T04:10:07.118Z,0
2017-03-29T04:11:18.117Z,0
2017-03-29T04:12:29.102Z,0
2017-03-29T04:13:40.111Z,0
2017-03-29T04:14:51.129Z,0
2017-03-29T04:16:02.322Z,0
2017-03-29T04:17:13.317Z,0
2017-03-29T04:18:24.303Z,0
2017-03-29T04:19:35.695Z,0
2017-03-29T04:20:46.938Z,0
2017-03-29T04:21:57.926Z,0
2017-03-29T04:23:09.125Z,0
2017-03-29T04:24:20.317Z,0
2017-03-29T04:25:31.301Z,0
2017-03-29T04:26:42.491Z,0
2017-03-29T04:27:53.881Z,0
2017-03-29T04:29:04.878Z,0
2017-03-29T04:30:15.862Z,0
2017-03-29T04:31:26.854Z,0
2017-03-29T04:32:38.042Z,0
2017-03-29T04:33:49.035Z,0
2017-03-29T04:35:00.233Z,0
2017-03-29T04:36:11.277Z,0
2017-03-29T04:37:22.673Z,0
2017-03-29T04:38:33.669Z,0
2017-03-29T04:39:44.662Z,0
2017-03-29T04:40:55.647Z,0
2017-03-29T04:42:06.639Z,0
2017-03-29T04:43:17.629Z,0
2017-03-29T04:44:28.614Z,0
2017-03-29T04:45:39.604Z,0
2017-03-29T04:46:50.639Z,0
2017-03-29T04:48:01.626Z,0
2017-03-29T04:49:12.614Z,0
2017-03-29T04:50:23.603Z,0
2017-03-29T04:51:34.798Z,0
2017-03-29T04:52:45.823Z,0
2017-03-29T04:53:56.810Z,0
2017-03-29T04:55:08.003Z,0
2017-03-29T04:56:19.201Z,0
2017-03-29T04:57:30.242Z,0
2017-03-29T04:58:41.436Z,0
2017-03-29T04:59:52.621Z,0
2017-03-29T05:01:03.841Z,0
2017-03-29T05:02:14.835Z,0
2017-03-29T05:03:25.820Z,0
2017-03-29T05:04:36.822Z,0
2017-03-29T05:05:47.813Z,5
2017-03-29T05:06:58.998Z,5
2017-03-29T05:08:10.190Z,5
2017-03-29T05:09:21.185Z,5
2017-03-29T05:10:32.179Z,5
2017-03-29T05:11:43.165Z,5
2017-03-29T05:12:54.401Z,5
2017-03-29T05:14:05.598Z,5
2017-03-29T05:15:16.809Z,5
2017-03-29T05:16:27.801Z,5
2017-03-29T05:17:38.802Z,5
2017-03-29T05:18:49.798Z,5
2017-03-29T05:20:00.780Z,5
2017-03-29T05:21:11.772Z,10
2017-03-29T05:22:22.755Z,10
2017-03-29T05:23:33.797Z,10
2017-03-29T05:24:44.795Z,5
2017-03-29T05:25:55.780Z,5
2017-03-29T05:27:06.769Z,10
2017-03-29T05:28:17.956Z,10
2017-03-29T05:29:28.948Z,10
2017-03-29T05:30:39.941Z,10
2017-03-29T05:31:51.134Z,15
2017-03-29T05:33:02.529Z,20
2017-03-29T05:34:13.562Z,25
2017-03-29T05:35:24.750Z,35
2017-03-29T05:36:35.940Z,40
2017-03-29T05:37:46.935Z,40
2017-03-29T05:38:57.918Z,40
2017-03-29T05:40:08.903Z,40
2017-03-29T05:41:19.901Z,35
2017-03-29T05:42:30.897Z,35
2017-03-29T05:43:41.880Z,30
2017-03-29T05:44:53.072Z,30
2017-03-29T05:46:04.058Z,30
2017-03-29T05:47:15.051Z,30
2017-03-29T05:48:26.043Z,30
2017-03-29T05:49:37.235Z,30
2017-03-29T05:50:48.228Z,30
2017-03-29T05:51:59.213Z,35
2017-03-29T05:53:10.202Z,35
2017-03-29T05:54:21.195Z,35
2017-03-29T05:55:32.190Z,35
2017-03-29T05:56:43.385Z,35
2017-03-29T05:57:54.377Z,35
2017-03-29T05:59:05.361Z,40
2017-03-29T06:00:16.358Z,45
2017-03-29T06:01:27.345Z,45
2017-03-29T06:02:38.537Z,50
2017-03-29T06:03:49.526Z,55
2017-03-29T06:05:00.585Z,55
2017-03-29T06:06:11.572Z,60
2017-03-29T06:07:22.567Z,60
2017-03-29T06:08:33.578Z,60
2017-03-29T06:09:44.775Z,60
2017-03-29T06:10:55.765Z,60
2017-03-29T06:12:06.768Z,60
2017-03-29T06:13:17.961Z,60
2017-03-29T06:14:28.947Z,60
2017-03-29T06:15:39.988Z,65
2017-03-29T06:16:50.981Z,65
2017-03-29T06:18:01.968Z,60
2017-03-29T06:19:12.952Z,60
2017-03-29T06:20:23.949Z,55
2017-03-29T06:21:34.946Z,55
2017-03-29T06:22:46.139Z,55
2017-03-29T06:23:57.127Z,60
2017-03-29T06:25:08.116Z,60
2017-03-29T06:26:19.109Z,60
2017-03-29T06:27:30.095Z,60
2017-03-29T06:28:41.081Z,65
2017-03-29T06:29:52.270Z,65
2017-03-29T06:31:03.316Z,65
2017-03-29T06:32:14.303Z,75
2017-03-29T06:33:25.522Z,80
2017-03-29T06:34:36.517Z,85
2017-03-29T06:35:47.705Z,85
2017-03-29T06:36:58.892Z,85
2017-03-29T06:38:09.878Z,85
2017-03-29T06:39:20.860Z,85
2017-03-29T06:40:31.848Z,85
2017-03-29T06:41:42.839Z,90
2017-03-29T06:42:53.825Z,95
2017-03-29T06:44:04.808Z,100
2017-03-29T06:45:15.819Z,95
2017-03-29T06:46:27.297Z,90
2017-03-29T06:47:38.286Z,85
2017-03-29T06:48:49.271Z,95
2017-03-29T06:50:00.256Z,105
2017-03-29T06:51:11.246Z,110
2017-03-29T06:52:22.238Z,115
2017-03-29T06:53:33.222Z,120
2017-03-29T06:54:44.416Z,125
2017-03-29T06:55:55.614Z,120
2017-03-29T06:57:06.857Z,125
2017-03-29T06:58:17.840Z,125
2017-03-29T06:59:29.043Z,125
2017-03-29T07:00:40.038Z,125
2017-03-29T07:01:51.236Z,130
2017-03-29T07:03:02.274Z,120
2017-03-29T07:04:13.854Z,115
2017-03-29T07:05:25.409Z,110
2017-03-29T07:06:36.457Z,110
2017-03-29T07:07:47.647Z,125
2017-03-29T07:08:58.636Z,125
2017-03-29T07:10:09.628Z,120
2017-03-29T07:11:20.819Z,120
2017-03-29T07:12:31.813Z,125
2017-03-29T07:13:42.802Z,130
2017-03-29T07:14:53.798Z,125
2017-03-29T07:16:04.987Z,115
2017-03-29T07:17:15.981Z,100
2017-03-29T07:18:26.973Z,90
2017-03-29T07:19:37.977Z,80
2017-03-29T07:20:48.993Z,80
2017-03-29T07:21:59.984Z,95
2017-03-29T07:23:10.972Z,105
2017-03-29T07:24:21.971Z,110
2017-03-29T07:25:32.965Z,120
2017-03-29T07:26:43.958Z,125
2017-03-29T07:27:55.203Z,130
2017-03-29T07:29:06.201Z,130
2017-03-29T07:30:17.389Z,140
2017-03-29T07:31:28.381Z,160
2017-03-29T07:32:39.367Z,170
2017-03-29T07:33:50.356Z,190
2017-03-29T07:35:01.344Z,205
2017-03-29T07:36:12.343Z,220
2017-03-29T07:37:23.345Z,235
2017-03-29T07:38:34.334Z,205
2017-03-29T07:39:45.320Z,165
2017-03-29T07:40:56.519Z,145
2017-03-29T07:42:07.719Z,145
2017-03-29T07:43:18.922Z,175
2017-03-29T07:44:30.118Z,200
2017-03-29T07:45:41.119Z,205
2017-03-29T07:46:52.105Z,215
2017-03-29T07:48:03.089Z,240
2017-03-29T07:49:14.492Z,250
2017-03-29T07:50:25.686Z,250
2017-03-29T07:51:36.682Z,280
2017-03-29T07:52:47.674Z,290
2017-03-29T07:53:58.665Z,300
2017-03-29T07:55:09.867Z,300
2017-03-29T07:56:21.068Z,305
2017-03-29T07:57:32.066Z,275
2017-03-29T07:58:43.063Z,265
2017-03-29T07:59:54.262Z,275
2017-03-29T08:01:05.249Z,285
2017-03-29T08:02:16.258Z,295
2017-03-29T08:03:27.452Z,330
2017-03-29T08:04:38.491Z,370
2017-03-29T08:05:49.686Z,415
2017-03-29T08:07:00.880Z,470
2017-03-29T08:08:11.876Z,515
2017-03-29T08:09:22.866Z,580
2017-03-29T08:10:34.065Z,690
2017-03-29T08:11:45.062Z,660
2017-03-29T08:12:56.063Z,750
2017-03-29T08:14:07.051Z,1140
2017-03-29T08:15:18.045Z,1490
2017-03-29T08:16:29.042Z,1530
2017-03-29T08:17:40.034Z,1300
2017-03-29T08:18:51.031Z,845
2017-03-29T08:20:02.272Z,705
2017-03-29T08:21:13.271Z,575
2017-03-29T08:22:24.269Z,525
2017-03-29T08:23:35.268Z,475
2017-03-29T08:24:46.267Z,430
2017-03-29T08:25:57.265Z,385
2017-03-29T08:27:08.458Z,390
2017-03-29T08:28:19.696Z,455
2017-03-29T08:29:30.686Z,405
2017-03-29T08:30:41.730Z,340
2017-03-29T08:31:52.733Z,315
2017-03-29T08:33:03.925Z,315
2017-03-29T08:34:14.923Z,360
2017-03-29T08:35:25.928Z,425
2017-03-29T08:36:36.940Z,425
2017-03-29T08:37:47.924Z,375
2017-03-29T08:38:58.917Z,360
2017-03-29T08:40:10.114Z,350
2017-03-29T08:41:21.382Z,335
2017-03-29T08:42:32.375Z,330
2017-03-29T08:43:43.364Z,395
2017-03-29T08:44:54.357Z,530
2017-03-29T08:46:05.350Z,745
2017-03-29T08:47:16.348Z,895
2017-03-29T08:48:27.346Z,885
2017-03-29T08:49:38.337Z,715
2017-03-29T08:50:49.344Z,800
2017-03-29T08:52:00.587Z,910
2017-03-29T08:53:11.578Z,1405
2017-03-29T08:54:22.571Z,1320
2017-03-29T08:55:33.968Z,1010
2017-03-29T08:56:44.972Z,965
2017-03-29T08:57:56.172Z,950
2017-03-29T08:59:07.173Z,900
2017-03-29T09:00:18.170Z,885
2017-03-29T09:01:29.159Z,945
2017-03-29T09:02:40.347Z,1150
2017-03-29T09:03:51.341Z,1330
2017-03-29T09:05:02.337Z,1350
2017-03-29T09:06:13.338Z,1165
2017-03-29T09:07:24.392Z,925
2017-03-29T09:08:35.396Z,925
2017-03-29T09:09:46.598Z,1050
2017-03-29T09:10:57.599Z,900
2017-03-29T09:12:08.598Z,830
2017-03-29T09:13:19.651Z,1410
2017-03-29T09:14:30.643Z,1025
2017-03-29T09:15:41.848Z,850
2017-03-29T09:16:52.853Z,765
2017-03-29T09:18:04.131Z,845
2017-03-29T09:19:15.542Z,885
2017-03-29T09:20:26.541Z,635
2017-03-29T09:21:37.534Z,485
2017-03-29T09:22:48.539Z,420
2017-03-29T09:23:59.557Z,375
2017-03-29T09:25:10.561Z,335
2017-03-29T09:26:21.545Z,325
2017-03-29T09:27:32.748Z,295
2017-03-29T09:28:43.998Z,280
2017-03-29T09:29:55.205Z,320
2017-03-29T09:31:06.201Z,375
2017-03-29T09:32:17.432Z,400
2017-03-29T09:33:28.451Z,420
2017-03-29T09:34:39.444Z,425
2017-03-29T09:35:50.443Z,440
2017-03-29T09:37:01.640Z,470
2017-03-29T09:38:12.638Z,535
2017-03-29T09:39:23.637Z,550
2017-03-29T09:40:34.633Z,540
2017-03-29T09:41:45.826Z,550
2017-03-29T09:42:56.828Z,530
2017-03-29T09:44:07.900Z,490
2017-03-29T09:45:18.903Z,480
2017-03-29T09:46:30.097Z,445
2017-03-29T09:47:41.500Z,395
2017-03-29T09:48:52.695Z,365
2017-03-29T09:50:03.686Z,350
2017-03-29T09:51:14.685Z,340
2017-03-29T09:52:25.674Z,315
2017-03-29T09:53:36.869Z,295
2017-03-29T09:54:47.916Z,280
2017-03-29T09:55:58.927Z,290
2017-03-29T09:57:09.913Z,295
2017-03-29T09:58:20.899Z,270
2017-03-29T09:59:31.900Z,240
2017-03-29T10:00:42.894Z,215
2017-03-29T10:01:54.097Z,220
2017-03-29T10:03:05.092Z,240
2017-03-29T10:04:16.093Z,270
2017-03-29T10:05:27.143Z,290
2017-03-29T10:06:38.137Z,280
2017-03-29T10:07:49.132Z,265
2017-03-29T10:09:00.124Z,285
2017-03-29T10:10:11.101Z,320
2017-03-29T10:11:22.099Z,350
2017-03-29T10:12:33.087Z,360
2017-03-29T10:13:44.078Z,355
2017-03-29T10:14:55.067Z,345
2017-03-29T10:16:06.427Z,340
2017-03-29T10:17:20.343Z,315
2017-03-29T10:18:34.302Z,310
2017-03-29T10:19:48.771Z,295
2017-03-29T10:21:02.173Z,290
2017-03-29T10:22:14.183Z,270
2017-03-29T10:23:26.881Z,255
2017-03-29T10:24:40.172Z,250
2017-03-29T10:25:54.983Z,240
2017-03-29T10:27:08.285Z,290
2017-03-29T10:28:23.024Z,305
2017-03-29T10:29:36.953Z,295
2017-03-29T10:30:50.551Z,310
2017-03-29T10:32:05.688Z,325
2017-03-29T10:33:19.729Z,325
2017-03-29T10:34:33.539Z,360
2017-03-29T10:35:45.284Z,355
2017-03-29T10:36:58.569Z,325
2017-03-29T10:38:13.426Z,305
2017-03-29T10:39:27.653Z,320
2017-03-29T10:40:41.771Z,340
2017-03-29T10:41:56.302Z,315
2017-03-29T10:43:10.310Z,280
2017-03-29T10:44:24.061Z,255
2017-03-29T10:45:38.227Z,225
2017-03-29T10:46:49.752Z,220
2017-03-29T10:48:00.745Z,220
2017-03-29T10:49:11.938Z,195
2017-03-29T10:50:22.934Z,175
2017-03-29T10:51:33.926Z,170
2017-03-29T10:52:45.168Z,175
2017-03-29T10:53:56.158Z,170
2017-03-29T10:55:07.149Z,155
2017-03-29T10:56:18.148Z,155
2017-03-29T10:57:29.545Z,165
2017-03-29T10:58:40.539Z,200
2017-03-29T10:59:51.541Z,210
2017-03-29T11:01:02.557Z,210
2017-03-29T11:02:13.552Z,215
2017-03-29T11:03:24.531Z,210
2017-03-29T11:04:35.544Z,210
2017-03-29T11:05:46.553Z,230
2017-03-29T11:06:57.550Z,250
2017-03-29T11:08:08.789Z,245
2017-03-29T11:09:19.807Z,260
2017-03-29T11:10:30.804Z,280
2017-03-29T11:11:41.795Z,280
2017-03-29T11:12:52.990Z,285
2017-03-29T11:14:03.989Z,290
2017-03-29T11:15:14.991Z,265
2017-03-29T11:16:25.979Z,255
2017-03-29T11:17:37.373Z,250
2017-03-29T11:18:48.421Z,250
2017-03-29T11:19:59.407Z,255
2017-03-29T11:21:10.406Z,260
2017-03-29T11:22:21.396Z,270
2017-03-29T11:23:32.405Z,265
2017-03-29T11:24:43.602Z,235
2017-03-29T11:25:54.996Z,250
2017-03-29T11:27:05.982Z,250
2017-03-29T11:28:16.977Z,260
2017-03-29T11:29:28.215Z,250
2017-03-29T11:30:39.221Z,225
2017-03-29T11:31:50.245Z,215
2017-03-29T11:33:01.250Z,225
2017-03-29T11:34:12.238Z,200
2017-03-29T11:35:23.235Z,215
2017-03-29T11:36:34.268Z,240
2017-03-29T11:37:45.261Z,225
2017-03-29T11:38:56.660Z,230
2017-03-29T11:40:07.865Z,315
2017-03-29T11:41:19.062Z,355
2017-03-29T11:42:30.064Z,485
2017-03-29T11:43:41.055Z,525
2017-03-29T11:44:52.046Z,635
2017-03-29T11:46:03.043Z,660
2017-03-29T11:47:14.035Z,570
2017-03-29T11:48:25.234Z,525
2017-03-29T11:49:36.633Z,565
2017-03-29T11:50:47.628Z,450
2017-03-29T11:51:58.626Z,470
2017-03-29T11:53:09.638Z,485
2017-03-29T11:54:20.837Z,495
2017-03-29T11:55:31.885Z,500
2017-03-29T11:56:42.878Z,535
2017-03-29T11:57:53.880Z,575
2017-03-29T11:59:05.080Z,820
2017-03-29T12:00:16.073Z,1030
2017-03-29T12:01:27.061Z,775
2017-03-29T12:02:38.053Z,795
2017-03-29T12:03:49.044Z,815
2017-03-29T12:05:00.041Z,935
2017-03-29T12:06:11.094Z,1080
2017-03-29T12:07:22.290Z,875
2017-03-29T12:08:33.287Z,920
2017-03-29T12:09:44.292Z,990
2017-03-29T12:10:55.297Z,1185
2017-03-29T12:12:06.292Z,1065
2017-03-29T12:13:17.489Z,725
2017-03-29T12:14:28.485Z,685
2017-03-29T12:15:39.484Z,760
2017-03-29T12:16:50.482Z,735
2017-03-29T12:18:01.483Z,705
2017-03-29T12:19:12.483Z,645
2017-03-29T12:20:23.680Z,550
2017-03-29T12:21:34.883Z,445
2017-03-29T12:22:46.080Z,380
2017-03-29T12:23:57.087Z,340
2017-03-29T12:25:08.292Z,280
2017-03-29T12:26:19.288Z,220
2017-03-29T12:27:30.751Z,225
2017-03-29T12:28:41.755Z,225
2017-03-29T12:29:52.758Z,215
2017-03-29T12:31:03.756Z,190
2017-03-29T12:32:14.751Z,165
2017-03-29T12:33:25.747Z,155
2017-03-29T12:34:36.756Z,185
2017-03-29T12:35:47.958Z,230
2017-03-29T12:36:58.945Z,275
2017-03-29T12:38:10.383Z,325
2017-03-29T12:39:21.378Z,350
2017-03-29T12:40:32.375Z,295
2017-03-29T12:41:43.374Z,310
2017-03-29T12:42:54.378Z,340
2017-03-29T12:44:05.576Z,310
2017-03-29T12:45:16.982Z,255
2017-03-29T12:46:27.978Z,190
2017-03-29T12:47:38.973Z,180
2017-03-29T12:48:50.227Z,170
2017-03-29T12:50:01.423Z,185
2017-03-29T12:51:12.424Z,190
2017-03-29T12:52:23.454Z,200
2017-03-29T12:53:34.454Z,200
2017-03-29T12:54:45.454Z,195
2017-03-29T12:55:56.441Z,200
2017-03-29T12:57:07.627Z,195
2017-03-29T12:58:18.620Z,195
2017-03-29T12:59:29.611Z,205
2017-03-29T13:00:40.631Z,225
2017-03-29T13:01:51.628Z,285
2017-03-29T13:03:02.623Z,375
2017-03-29T13:04:13.670Z,390
2017-03-29T13:05:24.660Z,385
2017-03-29T13:06:35.869Z,365
2017-03-29T13:07:46.874Z,305
2017-03-29T13:08:58.075Z,220
2017-03-29T13:10:09.071Z,155
2017-03-29T13:11:20.268Z,110
2017-03-29T13:12:31.256Z,90
2017-03-29T13:13:42.244Z,100
2017-03-29T13:14:53.494Z,115
2017-03-29T13:16:04.491Z,115
2017-03-29T13:17:15.700Z,125
2017-03-29T13:18:26.690Z,145
2017-03-29T13:19:37.713Z,130
2017-03-29T13:20:48.912Z,105
2017-03-29T13:22:00.111Z,95
2017-03-29T13:23:11.113Z,85
2017-03-29T13:24:22.106Z,85
2017-03-29T13:25:33.556Z,80
2017-03-29T13:26:44.549Z,80
2017-03-29T13:27:55.549Z,80
2017-03-29T13:29:06.530Z,80
2017-03-29T13:30:17.522Z,80
2017-03-29T13:31:28.921Z,85
2017-03-29T13:32:39.914Z,90
2017-03-29T13:33:50.916Z,95
2017-03-29T13:35:01.913Z,90
2017-03-29T13:36:13.109Z,95
2017-03-29T13:37:24.104Z,100
2017-03-29T13:38:35.305Z,105
2017-03-29T13:39:46.303Z,95
2017-03-29T13:40:57.347Z,85
2017-03-29T13:42:08.542Z,75
2017-03-29T13:43:19.743Z,85
2017-03-29T13:44:30.732Z,95
2017-03-29T13:45:41.723Z,105
2017-03-29T13:46:52.922Z,115
2017-03-29T13:48:03.913Z,135
2017-03-29T13:49:14.904Z,135
2017-03-29T13:50:25.902Z,135
2017-03-29T13:51:37.049Z,145
2017-03-29T13:52:48.031Z,165
2017-03-29T13:53:59.257Z,185
2017-03-29T13:55:10.252Z,200
2017-03-29T13:56:21.280Z,210
2017-03-29T13:57:32.272Z,230
2017-03-29T13:58:43.269Z,230
2017-03-29T13:59:54.268Z,230
2017-03-29T14:01:05.263Z,225
2017-03-29T14:02:16.304Z,225
2017-03-29T14:03:27.297Z,215
2017-03-29T14:04:38.299Z,215
2017-03-29T14:05:49.288Z,210
2017-03-29T14:07:00.282Z,195
2017-03-29T14:08:11.280Z,180
2017-03-29T14:09:22.479Z,170
2017-03-29T14:10:33.473Z,185
2017-03-29T14:11:44.475Z,165
2017-03-29T14:12:55.466Z,145
2017-03-29T14:14:06.465Z,130
2017-03-29T14:15:17.488Z,125
2017-03-29T14:16:28.487Z,125
2017-03-29T14:17:39.493Z,115
2017-03-29T14:18:50.490Z,105
2017-03-29T14:20:01.494Z,100
2017-03-29T14:21:12.490Z,100
2017-03-29T14:22:23.687Z,110
2017-03-29T14:23:34.721Z,120
2017-03-29T14:24:45.922Z,110
2017-03-29T14:25:57.125Z,125
2017-03-29T14:27:08.127Z,135
2017-03-29T14:28:19.127Z,140
2017-03-29T14:29:30.118Z,120
2017-03-29T14:30:41.113Z,100
2017-03-29T14:31:52.115Z,90
2017-03-29T14:33:03.310Z,85
2017-03-29T14:34:14.351Z,85
2017-03-29T14:35:25.545Z,95
2017-03-29T14:36:36.537Z,100
2017-03-29T14:37:47.533Z,105
2017-03-29T14:38:58.533Z,100
2017-03-29T14:40:09.524Z,90
2017-03-29T14:41:20.515Z,80
2017-03-29T14:42:31.706Z,75
2017-03-29T14:43:42.698Z,80
2017-03-29T14:44:53.740Z,85
2017-03-29T14:46:04.736Z,85
2017-03-29T14:47:15.742Z,85
2017-03-29T14:48:26.741Z,85
2017-03-29T14:49:37.736Z,85
2017-03-29T14:50:48.785Z,90
2017-03-29T14:51:59.781Z,100
2017-03-29T14:53:10.785Z,105
2017-03-29T14:54:21.773Z,105
2017-03-29T14:55:32.965Z,110
2017-03-29T14:56:43.991Z,110
2017-03-29T14:57:55.181Z,105
2017-03-29T14:59:06.172Z,105
2017-03-29T15:00:17.164Z,95
2017-03-29T15:01:28.206Z,85
2017-03-29T15:02:39.399Z,90
2017-03-29T15:03:50.391Z,100
2017-03-29T15:05:01.380Z,95
2017-03-29T15:06:12.376Z,90
2017-03-29T15:07:23.367Z,90
2017-03-29T15:08:34.561Z,100
2017-03-29T15:09:45.758Z,110
2017-03-29T15:10:56.750Z,110
2017-03-29T15:12:07.797Z,110
2017-03-29T15:13:18.797Z,100
2017-03-29T15:14:29.789Z,95
2017-03-29T15:15:40.986Z,90
2017-03-29T15:16:51.986Z,90
2017-03-29T15:18:02.975Z,90
2017-03-29T15:19:13.967Z,85
2017-03-29T15:20:25.169Z,85
2017-03-29T15:21:36.177Z,90
2017-03-29T15:22:47.414Z,85
2017-03-29T15:23:58.401Z,85
2017-03-29T15:25:09.387Z,85
2017-03-29T15:26:20.582Z,80
2017-03-29T15:27:31.578Z,80
2017-03-29T15:28:42.574Z,75
2017-03-29T15:29:53.969Z,80
2017-03-29T15:31:04.967Z,75
2017-03-29T15:32:15.965Z,65
2017-03-29T15:33:27.158Z,65
2017-03-29T15:34:38.201Z,85
2017-03-29T15:35:49.197Z,115
2017-03-29T15:37:00.190Z,125
2017-03-29T15:38:11.192Z,125
2017-03-29T15:39:22.442Z,125
2017-03-29T15:40:33.438Z,125
2017-03-29T15:41:44.640Z,130
2017-03-29T15:42:55.638Z,135
2017-03-29T15:44:06.635Z,130
2017-03-29T15:45:17.662Z,125
2017-03-29T15:46:28.653Z,130
2017-03-29T15:47:39.648Z,145
2017-03-29T15:48:50.654Z,150
2017-03-29T15:50:01.691Z,155
2017-03-29T15:51:12.688Z,160
2017-03-29T15:52:23.717Z,155
2017-03-29T15:53:34.716Z,155
2017-03-29T15:54:45.699Z,160
2017-03-29T15:55:56.692Z,165
2017-03-29T15:57:07.700Z,165
2017-03-29T15:58:18.691Z,165
2017-03-29T15:59:29.689Z,160
2017-03-29T16:00:40.885Z,150
2017-03-29T16:01:51.880Z,140
2017-03-29T16:03:02.867Z,130
2017-03-29T16:04:13.864Z,125
2017-03-29T16:05:25.108Z,115
2017-03-29T16:06:36.107Z,105
2017-03-29T16:07:47.304Z,100
2017-03-29T16:08:58.300Z,90
2017-03-29T16:10:09.299Z,85
2017-03-29T16:11:20.303Z,80
2017-03-29T16:12:31.300Z,70
2017-03-29T16:13:42.296Z,65
2017-03-29T16:14:53.299Z,65
2017-03-29T16:16:04.341Z,70
2017-03-29T16:17:15.340Z,65
2017-03-29T16:18:26.736Z,65
2017-03-29T16:19:37.927Z,60
2017-03-29T16:20:48.916Z,55
2017-03-29T16:21:59.919Z,50
2017-03-29T16:23:10.914Z,50
2017-03-29T16:24:22.109Z,50
2017-03-29T16:25:33.100Z,50
2017-03-29T16:26:44.141Z,50
2017-03-29T16:27:55.333Z,55
2017-03-29T16:29:06.326Z,50
2017-03-29T16:30:17.314Z,50
2017-03-29T16:31:28.302Z,50
2017-03-29T16:32:39.291Z,50
2017-03-29T16:33:50.278Z,50
2017-03-29T16:35:01.275Z,55
2017-03-29T16:36:12.264Z,60
2017-03-29T16:37:23.257Z,65
2017-03-29T16:38:34.257Z,65
2017-03-29T16:39:45.254Z,65
2017-03-29T16:40:56.246Z,60
2017-03-29T16:42:07.443Z,60
2017-03-29T16:43:18.436Z,60
2017-03-29T16:44:29.434Z,60
2017-03-29T16:45:40.437Z,60
2017-03-29T16:46:51.433Z,65
2017-03-29T16:48:02.424Z,70